Daiwan Elegance — HOVX — position and weather

sailwx.info

Track history (hours):
 
Tides and Currents Weather Stations Pressure Air Temp Water Temp Dewpoint Dewpoint Depression Visibility Wind Speed Wind Dir Waves Ship Positions

Daiwan Elegance

Last reported at 2017-Nov-08 20:11 UTC. Time now 2017-Nov-18 04:34 UTC.
Position N 49°41' W 004°52'.
Warning: this ship's position is 9 days out of date.

Length 174 m; draft 9.5 m.

Type: Cargo ship. MMSI: 370189000.

Date/timePositionNaut miles runAvg speedWind from/ knotsBaromVisibWave heightAir tempDewpointWater temp
2017-Nov-08 20:11N 49°41' W 004°52'211.2
2017-Nov-08 19:59N 49°42' W 004°49'611.3
2017-Nov-08 19:28N 49°43' W 004°41'511.5
2017-Nov-08 19:00N 49°45' W 004°33'611.9
2017-Nov-08 18:30N 49°46' W 004°24'912.4
2017-Nov-08 17:49N 49°48' W 004°11'412.9
2017-Nov-08 17:30N 49°49' W 004°05'713.4
2017-Nov-08 17:00N 49°51' W 003°55'714.0
2017-Nov-08 16:31N 49°53' W 003°44'714.6
2017-Nov-08 16:01N 49°54' W 003°33'714.9
2017-Nov-08 15:30N 49°56' W 003°22'715.0
2017-Nov-08 15:01N 49°58' W 003°11'714.7
2017-Nov-08 14:31N 50°00' W 002°60'714.2
2017-Nov-08 14:01N 50°02' W 002°49'713.7
2017-Nov-08 13:29N 50°03' W 002°38'612.9
2017-Nov-08 12:59N 50°05' W 002°29'2310.7
2017-Nov-08 10:54N 50°11' W 001°55'4 9.4
2017-Nov-08 10:30N 50°12' W 001°49'5 9.4
2017-Nov-08 10:00N 50°13' W 001°42'5 9.7
2017-Nov-08 09:31N 50°14' W 001°35'510.2
2017-Nov-08 09:00N 50°15' W 001°27'611.0
2017-Nov-08 08:30N 50°17' W 001°19'3313.9
2017-Nov-08 06:10N 50°25' W 000°29'215.2
2017-Nov-08 06:01N 50°25' W 000°26'815.1
2017-Nov-08 05:31N 50°27' W 000°14'714.8
2017-Nov-08 05:01N 50°29' W 000°03'714.7
2017-Nov-08 04:30N 50°31' E 000°08'714.5
2017-Nov-08 04:01N 50°33' E 000°19'714.2
2017-Nov-08 03:31N 50°35' E 000°30'713.5
2017-Nov-08 03:00N 50°38' E 000°39'713.2
2017-Nov-08 02:30N 50°42' E 000°47'612.6
2017-Nov-08 02:00N 50°46' E 000°54'612.1
2017-Nov-08 01:30N 50°50' E 001°02'611.7
2017-Nov-08 01:00N 50°54' E 001°09'611.5
2017-Nov-08 00:30N 50°58' E 001°16'611.9
2017-Nov-08 00:01N 51°02' E 001°23'713.8
2017-Nov-07 23:31N 51°06' E 001°31'815.3
2017-Nov-07 23:01N 51°11' E 001°41'815.5
2017-Nov-07 22:31N 51°17' E 001°48'815.5
2017-Nov-07 22:01N 51°24' E 001°54'714.9
2017-Nov-07 21:31N 51°30' E 002°02'714.5
2017-Nov-07 21:01N 51°35' E 002°10'714.2
2017-Nov-07 20:30N 51°40' E 002°17'3512.5
2017-Nov-07 17:42N 52°07' E 002°54'211.5
2017-Nov-07 17:29N 52°09' E 002°57'611.2
2017-Nov-07 16:58N 52°13' E 003°03'511.1
2017-Nov-07 16:30N 52°18' E 003°08'19212.0
2017-Nov-07 00:35N 54°01' E 007°37'112.2
2017-Nov-07 00:30N 54°01' E 007°39'611.9
2017-Nov-07 00:00N 54°02' E 007°49'612.0
2017-Nov-06 23:30N 54°02' E 007°59'611.6
2017-Nov-06 23:00N 54°01' E 008°09'510.1
2017-Nov-06 22:30N 54°00' E 008°17'5 8.9
2017-Nov-06 22:00N 53°59' E 008°25'5 9.2
2017-Nov-06 21:30N 53°58' E 008°32'510.8
2017-Nov-06 21:00N 53°55' E 008°40'613.0
2017-Nov-06 20:30N 53°51' E 008°47'48 2.6
2017-Nov-06 02:28N 53°29' E 009°59'0 0.0
2017-Nov-06 01:58N 53°29' E 009°59'0 0.0
2017-Nov-06 01:28N 53°29' E 009°59'0 0.0
2017-Nov-06 00:58N 53°29' E 009°59'0 0.0
2017-Nov-06 00:28N 53°29' E 009°59'0 0.0
2017-Nov-05 23:55N 53°29' E 009°59'0 0.0
2017-Nov-05 23:25N 53°29' E 009°59'0 0.0
2017-Nov-05 22:58N 53°29' E 009°59'0 0.0
2017-Nov-05 22:28N 53°29' E 009°59'0 0.0
2017-Nov-05 21:58N 53°29' E 009°59'0 0.0
2017-Nov-05 21:28N 53°29' E 009°59'0 0.0
2017-Nov-05 20:58N 53°29' E 009°59'0 0.0
2017-Nov-05 20:28N 53°29' E 009°59'0 0.0
2017-Nov-05 19:58N 53°29' E 009°59'0 0.0
2017-Nov-05 19:28N 53°29' E 009°59'0 0.0
2017-Nov-05 18:58N 53°29' E 009°59'0 0.0
2017-Nov-05 18:28N 53°29' E 009°59'0 0.0
2017-Nov-05 17:58N 53°29' E 009°59'0 0.0
2017-Nov-05 17:28N 53°29' E 009°59'0 0.0
2017-Nov-05 16:58N 53°29' E 009°59'0 0.0
2017-Nov-05 16:28N 53°29' E 009°59'0 0.0
2017-Nov-05 15:58N 53°29' E 009°59'0 0.0
2017-Nov-05 15:28N 53°29' E 009°59'0 0.0
2017-Nov-05 14:58N 53°29' E 009°59'0 0.0
2017-Nov-05 14:28N 53°29' E 009°59'0 0.0
2017-Nov-05 13:58N 53°29' E 009°59'0 0.0
2017-Nov-05 13:28N 53°29' E 009°59'0 0.0
2017-Nov-05 12:58N 53°29' E 009°59'0 0.0
2017-Nov-05 12:28N 53°29' E 009°59'0 0.0
2017-Nov-05 11:58N 53°29' E 009°59'0 0.0
2017-Nov-05 11:28N 53°29' E 009°59'0 0.0
2017-Nov-05 10:58N 53°29' E 009°59'0 0.0
2017-Nov-05 10:28N 53°29' E 009°59'0 0.0
2017-Nov-05 09:58N 53°29' E 009°59'0 0.0
2017-Nov-05 09:28N 53°29' E 009°59'0 0.0
2017-Nov-05 08:58N 53°29' E 009°59'0 0.0
2017-Nov-05 08:25N 53°29' E 009°59'0 0.0
2017-Nov-05 07:58N 53°29' E 009°59'0 0.0
2017-Nov-05 07:28N 53°29' E 009°59'0 0.0
2017-Nov-05 06:58N 53°29' E 009°59'0 0.0
2017-Nov-05 06:28N 53°29' E 009°59'0 0.0
2017-Nov-05 05:55N 53°29' E 009°59'0 0.0
2017-Nov-05 05:28N 53°29' E 009°59'0 0.0
2017-Nov-05 04:58N 53°29' E 009°59'0 0.0
2017-Nov-05 04:28N 53°29' E 009°59'0 0.0
2017-Nov-05 03:58N 53°29' E 009°59'0 0.0
2017-Nov-05 03:28N 53°29' E 009°59'0 0.0
2017-Nov-05 02:58N 53°29' E 009°59'0 0.0
2017-Nov-05 02:28N 53°29' E 009°59'0 0.0
2017-Nov-05 01:58N 53°29' E 009°59'0 0.0
2017-Nov-05 01:28N 53°29' E 009°59'0 0.0
2017-Nov-05 00:58N 53°29' E 009°59'0 0.0
2017-Nov-05 00:28N 53°29' E 009°59'0 0.0
2017-Nov-04 23:58N 53°29' E 009°59'0 0.0
2017-Nov-04 23:28N 53°29' E 009°59'0 0.0
2017-Nov-04 22:58N 53°29' E 009°59'0 0.0
2017-Nov-04 22:28N 53°29' E 009°59'0 0.0
2017-Nov-04 21:58N 53°29' E 009°59'0 0.0
2017-Nov-04 21:28N 53°29' E 009°59'0 0.0
2017-Nov-04 20:55N 53°29' E 009°59'0 0.0
2017-Nov-04 20:28N 53°29' E 009°59'0 0.0
2017-Nov-04 19:58N 53°29' E 009°59'0 0.0
2017-Nov-04 19:28N 53°29' E 009°59'0 0.0
2017-Nov-04 18:58N 53°29' E 009°59'0 0.0
2017-Nov-04 18:28N 53°29' E 009°59'0 0.0
2017-Nov-04 17:58N 53°29' E 009°59'0 0.0
2017-Nov-04 17:28N 53°29' E 009°59'0 0.0
2017-Nov-04 16:58N 53°29' E 009°59'0 0.0
2017-Nov-04 16:28N 53°29' E 009°59'0 0.0
2017-Nov-04 15:58N 53°29' E 009°59'0 0.0
2017-Nov-04 15:28N 53°29' E 009°59'0 0.0
2017-Nov-04 14:58N 53°29' E 009°59'0 0.0
2017-Nov-04 14:28N 53°29' E 009°59'0 0.0
2017-Nov-04 13:58N 53°29' E 009°59'0 0.0
2017-Nov-04 13:28N 53°29' E 009°59'0 0.0
2017-Nov-04 12:58N 53°29' E 009°59'0 0.0
2017-Nov-04 12:28N 53°29' E 009°59'0 0.0
2017-Nov-04 11:58N 53°29' E 009°59'0 0.0
2017-Nov-04 11:28N 53°29' E 009°59'0 0.0
2017-Nov-04 10:58N 53°29' E 009°59'0 0.0
2017-Nov-04 10:25N 53°29' E 009°59'0 0.0
2017-Nov-04 09:55N 53°29' E 009°59'0 0.0
2017-Nov-04 09:28N 53°29' E 009°59'0 0.0
2017-Nov-04 08:58N 53°29' E 009°59'0 0.0
2017-Nov-04 08:28N 53°29' E 009°59'0 0.0
2017-Nov-04 07:58N 53°29' E 009°59'0 0.0
2017-Nov-04 07:28N 53°29' E 009°59'0 0.0
2017-Nov-04 06:58N 53°29' E 009°59'0 0.0
2017-Nov-04 06:28N 53°29' E 009°59'0 0.0
2017-Nov-04 05:58N 53°29' E 009°59'0 0.0
2017-Nov-04 05:28N 53°29' E 009°59'0 0.0
2017-Nov-04 04:58N 53°29' E 009°59'0 0.0
2017-Nov-04 04:28N 53°29' E 009°59'0 0.0
2017-Nov-04 03:58N 53°29' E 009°59'0 0.0
2017-Nov-04 03:28N 53°29' E 009°59'0 0.0
2017-Nov-04 02:58N 53°29' E 009°59'0 0.0
2017-Nov-04 02:28N 53°29' E 009°59'0 0.0
2017-Nov-04 01:58N 53°29' E 009°59'0 0.0
2017-Nov-04 01:28N 53°29' E 009°59'0 0.0
2017-Nov-04 00:55N 53°29' E 009°59'0 0.0
2017-Nov-04 00:28N 53°29' E 009°59'0 0.0
2017-Nov-03 23:58N 53°29' E 009°59'0 0.0
2017-Nov-03 23:28N 53°29' E 009°59'0 0.0
2017-Nov-03 22:58N 53°29' E 009°59'0 0.0
2017-Nov-03 22:28N 53°29' E 009°59'0 0.0
2017-Nov-03 21:58N 53°29' E 009°59'0 0.0
2017-Nov-03 21:28N 53°29' E 009°59'0 0.0
2017-Nov-03 20:58N 53°29' E 009°59'0 0.0
2017-Nov-03 20:28N 53°29' E 009°59'0 0.0
2017-Nov-03 19:58N 53°29' E 009°59'0 0.0
2017-Nov-03 19:28N 53°29' E 009°59'0 0.0
2017-Nov-03 18:58N 53°29' E 009°59'0 0.0
2017-Nov-03 18:28N 53°29' E 009°59'0 0.0
2017-Nov-03 17:58N 53°29' E 009°59'0 0.0
2017-Nov-03 17:28N 53°29' E 009°59'0 0.0
2017-Nov-03 16:58N 53°29' E 009°59'0 0.0
2017-Nov-03 16:28N 53°29' E 009°59'0 0.0
2017-Nov-03 15:58N 53°29' E 009°59'0 0.0
2017-Nov-03 15:28N 53°29' E 009°59'0 0.0
2017-Nov-03 14:58N 53°29' E 009°59'0 0.0
2017-Nov-03 14:28N 53°29' E 009°59'0 0.0
2017-Nov-03 13:58N 53°29' E 009°59'0 0.0
2017-Nov-03 13:28N 53°29' E 009°59'0 0.0
2017-Nov-03 12:58N 53°29' E 009°59'0 0.0
2017-Nov-03 12:28N 53°29' E 009°59'0 0.0
2017-Nov-03 11:58N 53°29' E 009°59'0 0.0
2017-Nov-03 11:28N 53°29' E 009°59'0 0.0
2017-Nov-03 10:58N 53°29' E 009°59'0 0.0
2017-Nov-03 10:28N 53°29' E 009°59'0 0.0
2017-Nov-03 09:58N 53°29' E 009°59'0 0.0
2017-Nov-03 09:28N 53°29' E 009°59'0 0.0
2017-Nov-03 08:58N 53°29' E 009°59'0 0.0
2017-Nov-03 08:28N 53°29' E 009°59'0 0.0
2017-Nov-03 07:58N 53°29' E 009°59'0 0.0
2017-Nov-03 07:28N 53°29' E 009°59'0 0.0
2017-Nov-03 06:58N 53°29' E 009°59'0 0.0
2017-Nov-03 06:28N 53°29' E 009°59'0 0.0
2017-Nov-03 05:58N 53°29' E 009°59'0 0.0
2017-Nov-03 05:28N 53°29' E 009°59'0 0.0
2017-Nov-03 04:58N 53°29' E 009°59'0 0.0
2017-Nov-03 04:28N 53°29' E 009°59'0 0.0
2017-Nov-03 03:58N 53°29' E 009°59'0 0.0
2017-Nov-03 03:28N 53°29' E 009°59'0 0.0
2017-Nov-03 02:58N 53°29' E 009°59'0 0.0
2017-Nov-03 02:28N 53°29' E 009°59'0 0.0
2017-Nov-03 01:58N 53°29' E 009°59'0 0.0
2017-Nov-03 01:28N 53°29' E 009°59'0 0.0
2017-Nov-03 00:58N 53°29' E 009°59'0 0.0
2017-Nov-03 00:28N 53°29' E 009°59'0 0.0
2017-Nov-02 23:58N 53°29' E 009°59'0 0.0
2017-Nov-02 23:28N 53°29' E 009°59'0 0.0
2017-Nov-02 22:58N 53°29' E 009°59'0 0.0
2017-Nov-02 22:28N 53°29' E 009°59'0 0.0
2017-Nov-02 21:58N 53°29' E 009°59'0 0.0
2017-Nov-02 21:28N 53°29' E 009°59'0 0.0
2017-Nov-02 20:58N 53°29' E 009°59'0 0.0
2017-Nov-02 20:28N 53°29' E 009°59'0 0.0
2017-Nov-02 19:58N 53°29' E 009°59'0 0.0
2017-Nov-02 19:28N 53°29' E 009°59'0 0.0
2017-Nov-02 18:58N 53°29' E 009°59'0 0.0
2017-Nov-02 18:28N 53°29' E 009°59'0 0.0
2017-Nov-02 17:58N 53°29' E 009°59'0 0.0
2017-Nov-02 17:25N 53°29' E 009°59'0 0.0
2017-Nov-02 16:58N 53°29' E 009°59'0 0.0
2017-Nov-02 16:28N 53°29' E 009°59'0 0.0
2017-Nov-02 15:58N 53°29' E 009°59'0 0.0
2017-Nov-02 15:28N 53°29' E 009°59'0 0.0
2017-Nov-02 14:58N 53°29' E 009°59'0 0.0
2017-Nov-02 14:28N 53°29' E 009°59'0 0.0
2017-Nov-02 13:58N 53°29' E 009°59'0 0.0
2017-Nov-02 13:28N 53°29' E 009°59'0 0.0
2017-Nov-02 12:58N 53°29' E 009°59'0 0.0
2017-Nov-02 12:28N 53°29' E 009°59'0 0.0
2017-Nov-02 11:58N 53°29' E 009°59'0 0.0
2017-Nov-02 11:28N 53°29' E 009°59'0 0.0
2017-Nov-02 10:58N 53°29' E 009°59'0 0.0
2017-Nov-02 10:28N 53°29' E 009°59'0 0.0
2017-Nov-02 09:58N 53°29' E 009°59'0 0.0
2017-Nov-02 09:28N 53°29' E 009°59'0 0.0
2017-Nov-02 08:58N 53°29' E 009°59'0 0.0
2017-Nov-02 08:28N 53°29' E 009°59'0 0.0
2017-Nov-02 07:55N 53°29' E 009°59'0 0.0
2017-Nov-02 07:25N 53°29' E 009°59'0 0.0
2017-Nov-02 06:58N 53°29' E 009°59'0 0.0
2017-Nov-02 06:28N 53°29' E 009°59'0 0.0
2017-Nov-02 05:58N 53°29' E 009°59'0 0.0
2017-Nov-02 05:28N 53°29' E 009°59'0 0.0
2017-Nov-02 04:58N 53°29' E 009°59'0 0.0
2017-Nov-02 04:28N 53°29' E 009°59'0 0.0
2017-Nov-02 03:58N 53°29' E 009°59'0 0.0
2017-Nov-02 03:28N 53°29' E 009°59'0 0.0
2017-Nov-02 02:58N 53°29' E 009°59'0 0.0
2017-Nov-02 02:28N 53°29' E 009°59'0 0.0
2017-Nov-02 01:58N 53°29' E 009°59'0 0.0
2017-Nov-02 01:28N 53°29' E 009°59'0 0.0
2017-Nov-02 00:58N 53°29' E 009°59'0 0.0
2017-Nov-02 00:28N 53°29' E 009°59'0 0.0
2017-Nov-01 23:58N 53°29' E 009°59'0 0.0
2017-Nov-01 23:28N 53°29' E 009°59'0 0.0
2017-Nov-01 22:58N 53°29' E 009°59'0 0.0
2017-Nov-01 22:28N 53°29' E 009°59'0 1.0
2017-Nov-01 22:01N 53°30' E 009°59'1 2.0
2017-Nov-01 21:31N 53°30' E 009°58'2 5.0
2017-Nov-01 21:00N 53°32' E 009°56'5 9.1
2017-Nov-01 20:30N 53°33' E 009°48'4 8.5
2017-Nov-01 20:00N 53°34' E 009°41'510.5
2017-Nov-01 19:30N 53°37' E 009°34'510.3
2017-Nov-01 19:01N 53°42' E 009°30'510.6
2017-Nov-01 18:30N 53°46' E 009°24'48 2.9
2017-Nov-01 02:00N 54°02' E 008°08'0 0.0
2017-Nov-01 01:27N 54°02' E 008°08'0 0.0
2017-Nov-01 00:42N 54°02' E 008°08'0 0.1
2017-Nov-01 00:30N 54°02' E 008°08'0 0.1
2017-Nov-01 00:00N 54°02' E 008°08'0 0.1
2017-Oct-31 23:30N 54°02' E 008°08'0 0.0
2017-Oct-31 23:00N 54°02' E 008°08'0 0.0
2017-Oct-31 22:30N 54°02' E 008°08'0 0.1
2017-Oct-31 21:54N 54°02' E 008°08'0 0.1
2017-Oct-31 21:30N 54°02' E 008°08'0 0.0
2017-Oct-31 21:00N 54°02' E 008°08'0 0.0
2017-Oct-31 20:30N 54°02' E 008°08'0 0.0
2017-Oct-31 19:57N 54°02' E 008°08'0 0.0
2017-Oct-31 19:27N 54°02' E 008°08'0 0.0
2017-Oct-31 18:51N 54°02' E 008°08'0 0.0
2017-Oct-31 18:30N 54°02' E 008°08'0 0.0
2017-Oct-31 18:00N 54°02' E 008°08'0 0.0
2017-Oct-31 17:30N 54°02' E 008°08'0 0.0
2017-Oct-31 17:00N 54°02' E 008°08'0 0.0
2017-Oct-31 16:18N 54°02' E 008°08'0 0.0
2017-Oct-31 16:00N 54°02' E 008°08'0 0.0
2017-Oct-31 15:24N 54°02' E 008°08'0 0.0
2017-Oct-31 15:00N 54°02' E 008°08'0 0.1
2017-Oct-31 14:30N 54°02' E 008°08'0 0.0
2017-Oct-31 14:00N 54°02' E 008°08'0 0.1
2017-Oct-31 13:30N 54°02' E 008°08'0 0.0
2017-Oct-31 13:00N 54°02' E 008°08'0 0.1
2017-Oct-31 12:30N 54°02' E 008°08'0 0.0
2017-Oct-31 12:00N 54°02' E 008°08'0 0.0
2017-Oct-31 11:30N 54°02' E 008°08'0 0.0
2017-Oct-31 11:00N 54°02' E 008°08'0 0.0
2017-Oct-31 10:30N 54°02' E 008°08'0 0.1
2017-Oct-31 10:00N 54°02' E 008°08'0 0.1
2017-Oct-31 09:21N 54°02' E 008°08'0 0.0
2017-Oct-31 09:00N 54°02' E 008°08'0 0.1
2017-Oct-31 08:30N 54°02' E 008°08'0 0.1
2017-Oct-31 08:00N 54°02' E 008°08'0 0.0
2017-Oct-31 07:30N 54°02' E 008°08'0 0.0
2017-Oct-31 07:00N 54°02' E 008°08'0 0.0
2017-Oct-31 06:30N 54°02' E 008°08'0 0.1
2017-Oct-31 05:54N 54°02' E 008°08'0 0.0
2017-Oct-31 05:12N 54°02' E 008°08'0 0.1
2017-Oct-31 05:00N 54°02' E 008°08'0 0.0
2017-Oct-31 04:27N 54°02' E 008°08'0 0.1
2017-Oct-31 04:00N 54°02' E 008°08'0 0.0
2017-Oct-31 03:30N 54°02' E 008°08'0 0.0
2017-Oct-31 03:00N 54°02' E 008°08'0 0.0
2017-Oct-31 02:30N 54°02' E 008°08'0 0.1
2017-Oct-31 01:51N 54°02' E 008°08'0 0.1
2017-Oct-31 01:30N 54°02' E 008°08'0 0.0
2017-Oct-31 00:57N 54°02' E 008°08'0 0.1
2017-Oct-31 00:24N 54°02' E 008°08'0 0.0
2017-Oct-31 00:00N 54°02' E 008°08'0 0.0
2017-Oct-30 19:24N 54°02' E 008°08'0 0.0
2017-Oct-30 11:09N 54°02' E 008°08'0 0.0
2017-Oct-30 08:39N 54°02' E 008°08'0 0.1
2017-Oct-30 08:30N 54°02' E 008°08'0 0.0
2017-Oct-30 07:54N 54°02' E 008°08'0 0.0
2017-Oct-30 07:30N 54°02' E 008°08'0 0.0
2017-Oct-30 06:57N 54°02' E 008°08'0 0.1
2017-Oct-30 06:27N 54°02' E 008°08'0 0.0
2017-Oct-30 05:48N 54°02' E 008°08'0 0.0
2017-Oct-30 05:30N 54°02' E 008°08'0 0.1
2017-Oct-30 05:00N 54°02' E 008°08'0 0.1
2017-Oct-30 04:30N 54°02' E 008°08'0 0.1
2017-Oct-30 04:00N 54°02' E 008°08'0 0.0
2017-Oct-30 03:30N 54°02' E 008°08'0 0.0
2017-Oct-30 03:00N 54°02' E 008°08'0 0.1
2017-Oct-30 02:21N 54°02' E 008°08'0 0.1
2017-Oct-30 02:00N 54°02' E 008°08'0 0.0
2017-Oct-30 01:30N 54°02' E 008°08'0 0.1
2017-Oct-30 01:00N 54°02' E 008°08'  
Track history (hours):
 
Tides and Currents Weather Stations Pressure Air Temp Water Temp Dewpoint Dewpoint Depression Visibility Wind Speed Wind Dir Waves Ship Positions

Daiwan Elegance

Last reported at 2017-Nov-08 20:11 UTC. Time now 2017-Nov-18 04:34 UTC.
Position N 49°41' W 004°52'.
Warning: this ship's position is 9 days out of date.

Length 174 m; draft 9.5 m.

Type: Cargo ship. MMSI: 370189000.

Date/timePositionNaut miles runAvg speedWind from/ knotsBaromVisibWave heightAir tempDewpointWater temp
2017-Nov-08 20:11N 49°41' W 004°52'211.2
2017-Nov-08 19:59N 49°42' W 004°49'611.3
2017-Nov-08 19:28N 49°43' W 004°41'511.5
2017-Nov-08 19:00N 49°45' W 004°33'611.9
2017-Nov-08 18:30N 49°46' W 004°24'912.4
2017-Nov-08 17:49N 49°48' W 004°11'412.9
2017-Nov-08 17:30N 49°49' W 004°05'713.4
2017-Nov-08 17:00N 49°51' W 003°55'714.0
2017-Nov-08 16:31N 49°53' W 003°44'714.6
2017-Nov-08 16:01N 49°54' W 003°33'714.9
2017-Nov-08 15:30N 49°56' W 003°22'715.0
2017-Nov-08 15:01N 49°58' W 003°11'714.7
2017-Nov-08 14:31N 50°00' W 002°60'714.2
2017-Nov-08 14:01N 50°02' W 002°49'713.7
2017-Nov-08 13:29N 50°03' W 002°38'612.9
2017-Nov-08 12:59N 50°05' W 002°29'2310.7
2017-Nov-08 10:54N 50°11' W 001°55'4 9.4
2017-Nov-08 10:30N 50°12' W 001°49'5 9.4
2017-Nov-08 10:00N 50°13' W 001°42'5 9.7
2017-Nov-08 09:31N 50°14' W 001°35'510.2
2017-Nov-08 09:00N 50°15' W 001°27'611.0
2017-Nov-08 08:30N 50°17' W 001°19'3313.9
2017-Nov-08 06:10N 50°25' W 000°29'215.2
2017-Nov-08 06:01N 50°25' W 000°26'815.1
2017-Nov-08 05:31N 50°27' W 000°14'714.8
2017-Nov-08 05:01N 50°29' W 000°03'714.7
2017-Nov-08 04:30N 50°31' E 000°08'714.5
2017-Nov-08 04:01N 50°33' E 000°19'714.2
2017-Nov-08 03:31N 50°35' E 000°30'713.5
2017-Nov-08 03:00N 50°38' E 000°39'713.2
2017-Nov-08 02:30N 50°42' E 000°47'612.6
2017-Nov-08 02:00N 50°46' E 000°54'612.1
2017-Nov-08 01:30N 50°50' E 001°02'611.7
2017-Nov-08 01:00N 50°54' E 001°09'611.5
2017-Nov-08 00:30N 50°58' E 001°16'611.9
2017-Nov-08 00:01N 51°02' E 001°23'713.8
2017-Nov-07 23:31N 51°06' E 001°31'815.3
2017-Nov-07 23:01N 51°11' E 001°41'815.5
2017-Nov-07 22:31N 51°17' E 001°48'815.5
2017-Nov-07 22:01N 51°24' E 001°54'714.9
2017-Nov-07 21:31N 51°30' E 002°02'714.5
2017-Nov-07 21:01N 51°35' E 002°10'714.2
2017-Nov-07 20:30N 51°40' E 002°17'3512.5
2017-Nov-07 17:42N 52°07' E 002°54'211.5
2017-Nov-07 17:29N 52°09' E 002°57'611.2
2017-Nov-07 16:58N 52°13' E 003°03'511.1
2017-Nov-07 16:30N 52°18' E 003°08'19212.0
2017-Nov-07 00:35N 54°01' E 007°37'112.2
2017-Nov-07 00:30N 54°01' E 007°39'611.9
2017-Nov-07 00:00N 54°02' E 007°49'612.0
2017-Nov-06 23:30N 54°02' E 007°59'611.6
2017-Nov-06 23:00N 54°01' E 008°09'510.1
2017-Nov-06 22:30N 54°00' E 008°17'5 8.9
2017-Nov-06 22:00N 53°59' E 008°25'5 9.2
2017-Nov-06 21:30N 53°58' E 008°32'510.8
2017-Nov-06 21:00N 53°55' E 008°40'613.0
2017-Nov-06 20:30N 53°51' E 008°47'48 2.6
2017-Nov-06 02:28N 53°29' E 009°59'0 0.0
2017-Nov-06 01:58N 53°29' E 009°59'0 0.0
2017-Nov-06 01:28N 53°29' E 009°59'0 0.0
2017-Nov-06 00:58N 53°29' E 009°59'0 0.0
2017-Nov-06 00:28N 53°29' E 009°59'0 0.0
2017-Nov-05 23:55N 53°29' E 009°59'0 0.0
2017-Nov-05 23:25N 53°29' E 009°59'0 0.0
2017-Nov-05 22:58N 53°29' E 009°59'0 0.0
2017-Nov-05 22:28N 53°29' E 009°59'0 0.0
2017-Nov-05 21:58N 53°29' E 009°59'0 0.0
2017-Nov-05 21:28N 53°29' E 009°59'0 0.0
2017-Nov-05 20:58N 53°29' E 009°59'0 0.0
2017-Nov-05 20:28N 53°29' E 009°59'0 0.0
2017-Nov-05 19:58N 53°29' E 009°59'0 0.0
2017-Nov-05 19:28N 53°29' E 009°59'0 0.0
2017-Nov-05 18:58N 53°29' E 009°59'0 0.0
2017-Nov-05 18:28N 53°29' E 009°59'0 0.0
2017-Nov-05 17:58N 53°29' E 009°59'0 0.0
2017-Nov-05 17:28N 53°29' E 009°59'0 0.0
2017-Nov-05 16:58N 53°29' E 009°59'0 0.0
2017-Nov-05 16:28N 53°29' E 009°59'0 0.0
2017-Nov-05 15:58N 53°29' E 009°59'0 0.0
2017-Nov-05 15:28N 53°29' E 009°59'0 0.0
2017-Nov-05 14:58N 53°29' E 009°59'0 0.0
2017-Nov-05 14:28N 53°29' E 009°59'0 0.0
2017-Nov-05 13:58N 53°29' E 009°59'0 0.0
2017-Nov-05 13:28N 53°29' E 009°59'0 0.0
2017-Nov-05 12:58N 53°29' E 009°59'0 0.0
2017-Nov-05 12:28N 53°29' E 009°59'0 0.0
2017-Nov-05 11:58N 53°29' E 009°59'0 0.0
2017-Nov-05 11:28N 53°29' E 009°59'0 0.0
2017-Nov-05 10:58N 53°29' E 009°59'0 0.0
2017-Nov-05 10:28N 53°29' E 009°59'0 0.0
2017-Nov-05 09:58N 53°29' E 009°59'0 0.0
2017-Nov-05 09:28N 53°29' E 009°59'0 0.0
2017-Nov-05 08:58N 53°29' E 009°59'0 0.0
2017-Nov-05 08:25N 53°29' E 009°59'0 0.0
2017-Nov-05 07:58N 53°29' E 009°59'0 0.0
2017-Nov-05 07:28N 53°29' E 009°59'0 0.0
2017-Nov-05 06:58N 53°29' E 009°59'0 0.0
2017-Nov-05 06:28N 53°29' E 009°59'0 0.0
2017-Nov-05 05:55N 53°29' E 009°59'0 0.0
2017-Nov-05 05:28N 53°29' E 009°59'0 0.0
2017-Nov-05 04:58N 53°29' E 009°59'0 0.0
2017-Nov-05 04:28N 53°29' E 009°59'0 0.0
2017-Nov-05 03:58N 53°29' E 009°59'0 0.0
2017-Nov-05 03:28N 53°29' E 009°59'0 0.0
2017-Nov-05 02:58N 53°29' E 009°59'0 0.0
2017-Nov-05 02:28N 53°29' E 009°59'0 0.0
2017-Nov-05 01:58N 53°29' E 009°59'0 0.0
2017-Nov-05 01:28N 53°29' E 009°59'0 0.0
2017-Nov-05 00:58N 53°29' E 009°59'0 0.0
2017-Nov-05 00:28N 53°29' E 009°59'0 0.0
2017-Nov-04 23:58N 53°29' E 009°59'0 0.0
2017-Nov-04 23:28N 53°29' E 009°59'0 0.0
2017-Nov-04 22:58N 53°29' E 009°59'0 0.0
2017-Nov-04 22:28N 53°29' E 009°59'0 0.0
2017-Nov-04 21:58N 53°29' E 009°59'0 0.0
2017-Nov-04 21:28N 53°29' E 009°59'0 0.0
2017-Nov-04 20:55N 53°29' E 009°59'0 0.0
2017-Nov-04 20:28N 53°29' E 009°59'0 0.0
2017-Nov-04 19:58N 53°29' E 009°59'0 0.0
2017-Nov-04 19:28N 53°29' E 009°59'0 0.0
2017-Nov-04 18:58N 53°29' E 009°59'0 0.0
2017-Nov-04 18:28N 53°29' E 009°59'0 0.0
2017-Nov-04 17:58N 53°29' E 009°59'0 0.0
2017-Nov-04 17:28N 53°29' E 009°59'0 0.0
2017-Nov-04 16:58N 53°29' E 009°59'0 0.0
2017-Nov-04 16:28N 53°29' E 009°59'0 0.0
2017-Nov-04 15:58N 53°29' E 009°59'0 0.0
2017-Nov-04 15:28N 53°29' E 009°59'0 0.0
2017-Nov-04 14:58N 53°29' E 009°59'0 0.0
2017-Nov-04 14:28N 53°29' E 009°59'0 0.0
2017-Nov-04 13:58N 53°29' E 009°59'0 0.0
2017-Nov-04 13:28N 53°29' E 009°59'0 0.0
2017-Nov-04 12:58N 53°29' E 009°59'0 0.0
2017-Nov-04 12:28N 53°29' E 009°59'0 0.0
2017-Nov-04 11:58N 53°29' E 009°59'0 0.0
2017-Nov-04 11:28N 53°29' E 009°59'0 0.0
2017-Nov-04 10:58N 53°29' E 009°59'0 0.0
2017-Nov-04 10:25N 53°29' E 009°59'0 0.0
2017-Nov-04 09:55N 53°29' E 009°59'0 0.0
2017-Nov-04 09:28N 53°29' E 009°59'0 0.0
2017-Nov-04 08:58N 53°29' E 009°59'0 0.0
2017-Nov-04 08:28N 53°29' E 009°59'0 0.0
2017-Nov-04 07:58N 53°29' E 009°59'0 0.0
2017-Nov-04 07:28N 53°29' E 009°59'0 0.0
2017-Nov-04 06:58N 53°29' E 009°59'0 0.0
2017-Nov-04 06:28N 53°29' E 009°59'0 0.0
2017-Nov-04 05:58N 53°29' E 009°59'0 0.0
2017-Nov-04 05:28N 53°29' E 009°59'0 0.0
2017-Nov-04 04:58N 53°29' E 009°59'0 0.0
2017-Nov-04 04:28N 53°29' E 009°59'0 0.0
2017-Nov-04 03:58N 53°29' E 009°59'0 0.0
2017-Nov-04 03:28N 53°29' E 009°59'0 0.0
2017-Nov-04 02:58N 53°29' E 009°59'0 0.0
2017-Nov-04 02:28N 53°29' E 009°59'0 0.0
2017-Nov-04 01:58N 53°29' E 009°59'0 0.0
2017-Nov-04 01:28N 53°29' E 009°59'0 0.0
2017-Nov-04 00:55N 53°29' E 009°59'0 0.0
2017-Nov-04 00:28N 53°29' E 009°59'0 0.0
2017-Nov-03 23:58N 53°29' E 009°59'0 0.0
2017-Nov-03 23:28N 53°29' E 009°59'0 0.0
2017-Nov-03 22:58N 53°29' E 009°59'0 0.0
2017-Nov-03 22:28N 53°29' E 009°59'0 0.0
2017-Nov-03 21:58N 53°29' E 009°59'0 0.0
2017-Nov-03 21:28N 53°29' E 009°59'0 0.0
2017-Nov-03 20:58N 53°29' E 009°59'0 0.0
2017-Nov-03 20:28N 53°29' E 009°59'0 0.0
2017-Nov-03 19:58N 53°29' E 009°59'0 0.0
2017-Nov-03 19:28N 53°29' E 009°59'0 0.0
2017-Nov-03 18:58N 53°29' E 009°59'0 0.0
2017-Nov-03 18:28N 53°29' E 009°59'0 0.0
2017-Nov-03 17:58N 53°29' E 009°59'0 0.0
2017-Nov-03 17:28N 53°29' E 009°59'0 0.0
2017-Nov-03 16:58N 53°29' E 009°59'0 0.0
2017-Nov-03 16:28N 53°29' E 009°59'0 0.0
2017-Nov-03 15:58N 53°29' E 009°59'0 0.0
2017-Nov-03 15:28N 53°29' E 009°59'0 0.0
2017-Nov-03 14:58N 53°29' E 009°59'0 0.0
2017-Nov-03 14:28N 53°29' E 009°59'0 0.0
2017-Nov-03 13:58N 53°29' E 009°59'0 0.0
2017-Nov-03 13:28N 53°29' E 009°59'0 0.0
2017-Nov-03 12:58N 53°29' E 009°59'0 0.0
2017-Nov-03 12:28N 53°29' E 009°59'0 0.0
2017-Nov-03 11:58N 53°29' E 009°59'0 0.0
2017-Nov-03 11:28N 53°29' E 009°59'0 0.0
2017-Nov-03 10:58N 53°29' E 009°59'0 0.0
2017-Nov-03 10:28N 53°29' E 009°59'0 0.0
2017-Nov-03 09:58N 53°29' E 009°59'0 0.0
2017-Nov-03 09:28N 53°29' E 009°59'0 0.0
2017-Nov-03 08:58N 53°29' E 009°59'0 0.0
2017-Nov-03 08:28N 53°29' E 009°59'0 0.0
2017-Nov-03 07:58N 53°29' E 009°59'0 0.0
2017-Nov-03 07:28N 53°29' E 009°59'0 0.0
2017-Nov-03 06:58N 53°29' E 009°59'0 0.0
2017-Nov-03 06:28N 53°29' E 009°59'0 0.0
2017-Nov-03 05:58N 53°29' E 009°59'0 0.0
2017-Nov-03 05:28N 53°29' E 009°59'0 0.0
2017-Nov-03 04:58N 53°29' E 009°59'0 0.0
2017-Nov-03 04:28N 53°29' E 009°59'0 0.0
2017-Nov-03 03:58N 53°29' E 009°59'0 0.0
2017-Nov-03 03:28N 53°29' E 009°59'0 0.0
2017-Nov-03 02:58N 53°29' E 009°59'0 0.0
2017-Nov-03 02:28N 53°29' E 009°59'0 0.0
2017-Nov-03 01:58N 53°29' E 009°59'0 0.0
2017-Nov-03 01:28N 53°29' E 009°59'0 0.0
2017-Nov-03 00:58N 53°29' E 009°59'0 0.0
2017-Nov-03 00:28N 53°29' E 009°59'0 0.0
2017-Nov-02 23:58N 53°29' E 009°59'0 0.0
2017-Nov-02 23:28N 53°29' E 009°59'0 0.0
2017-Nov-02 22:58N 53°29' E 009°59'0 0.0
2017-Nov-02 22:28N 53°29' E 009°59'0 0.0
2017-Nov-02 21:58N 53°29' E 009°59'0 0.0
2017-Nov-02 21:28N 53°29' E 009°59'0 0.0
2017-Nov-02 20:58N 53°29' E 009°59'0 0.0
2017-Nov-02 20:28N 53°29' E 009°59'0 0.0
2017-Nov-02 19:58N 53°29' E 009°59'0 0.0
2017-Nov-02 19:28N 53°29' E 009°59'0 0.0
2017-Nov-02 18:58N 53°29' E 009°59'0 0.0
2017-Nov-02 18:28N 53°29' E 009°59'0 0.0
2017-Nov-02 17:58N 53°29' E 009°59'0 0.0
2017-Nov-02 17:25N 53°29' E 009°59'0 0.0
2017-Nov-02 16:58N 53°29' E 009°59'0 0.0
2017-Nov-02 16:28N 53°29' E 009°59'0 0.0
2017-Nov-02 15:58N 53°29' E 009°59'0 0.0
2017-Nov-02 15:28N 53°29' E 009°59'0 0.0
2017-Nov-02 14:58N 53°29' E 009°59'0 0.0
2017-Nov-02 14:28N 53°29' E 009°59'0 0.0
2017-Nov-02 13:58N 53°29' E 009°59'0 0.0
2017-Nov-02 13:28N 53°29' E 009°59'0 0.0
2017-Nov-02 12:58N 53°29' E 009°59'0 0.0
2017-Nov-02 12:28N 53°29' E 009°59'0 0.0
2017-Nov-02 11:58N 53°29' E 009°59'0 0.0
2017-Nov-02 11:28N 53°29' E 009°59'0 0.0
2017-Nov-02 10:58N 53°29' E 009°59'0 0.0
2017-Nov-02 10:28N 53°29' E 009°59'0 0.0
2017-Nov-02 09:58N 53°29' E 009°59'0 0.0
2017-Nov-02 09:28N 53°29' E 009°59'0 0.0
2017-Nov-02 08:58N 53°29' E 009°59'0 0.0
2017-Nov-02 08:28N 53°29' E 009°59'0 0.0
2017-Nov-02 07:55N 53°29' E 009°59'0 0.0
2017-Nov-02 07:25N 53°29' E 009°59'0 0.0
2017-Nov-02 06:58N 53°29' E 009°59'0 0.0
2017-Nov-02 06:28N 53°29' E 009°59'0 0.0
2017-Nov-02 05:58N 53°29' E 009°59'0 0.0
2017-Nov-02 05:28N 53°29' E 009°59'0 0.0
2017-Nov-02 04:58N 53°29' E 009°59'0 0.0
2017-Nov-02 04:28N 53°29' E 009°59'0 0.0
2017-Nov-02 03:58N 53°29' E 009°59'0 0.0
2017-Nov-02 03:28N 53°29' E 009°59'0 0.0
2017-Nov-02 02:58N 53°29' E 009°59'0 0.0
2017-Nov-02 02:28N 53°29' E 009°59'0 0.0
2017-Nov-02 01:58N 53°29' E 009°59'0 0.0
2017-Nov-02 01:28N 53°29' E 009°59'0 0.0
2017-Nov-02 00:58N 53°29' E 009°59'0 0.0
2017-Nov-02 00:28N 53°29' E 009°59'0 0.0
2017-Nov-01 23:58N 53°29' E 009°59'0 0.0
2017-Nov-01 23:28N 53°29' E 009°59'0 0.0
2017-Nov-01 22:58N 53°29' E 009°59'0 0.0
2017-Nov-01 22:28N 53°29' E 009°59'0 1.0
2017-Nov-01 22:01N 53°30' E 009°59'1 2.0
2017-Nov-01 21:31N 53°30' E 009°58'2 5.0
2017-Nov-01 21:00N 53°32' E 009°56'5 9.1
2017-Nov-01 20:30N 53°33' E 009°48'4 8.5
2017-Nov-01 20:00N 53°34' E 009°41'510.5
2017-Nov-01 19:30N 53°37' E 009°34'510.3
2017-Nov-01 19:01N 53°42' E 009°30'510.6
2017-Nov-01 18:30N 53°46' E 009°24'48 2.9
2017-Nov-01 02:00N 54°02' E 008°08'0 0.0
2017-Nov-01 01:27N 54°02' E 008°08'0 0.0
2017-Nov-01 00:42N 54°02' E 008°08'0 0.1
2017-Nov-01 00:30N 54°02' E 008°08'0 0.1
2017-Nov-01 00:00N 54°02' E 008°08'0 0.1
2017-Oct-31 23:30N 54°02' E 008°08'0 0.0
2017-Oct-31 23:00N 54°02' E 008°08'0 0.0
2017-Oct-31 22:30N 54°02' E 008°08'0 0.1
2017-Oct-31 21:54N 54°02' E 008°08'0 0.1
2017-Oct-31 21:30N 54°02' E 008°08'0 0.0
2017-Oct-31 21:00N 54°02' E 008°08'0 0.0
2017-Oct-31 20:30N 54°02' E 008°08'0 0.0
2017-Oct-31 19:57N 54°02' E 008°08'0 0.0
2017-Oct-31 19:27N 54°02' E 008°08'0 0.0
2017-Oct-31 18:51N 54°02' E 008°08'0 0.0
2017-Oct-31 18:30N 54°02' E 008°08'0 0.0
2017-Oct-31 18:00N 54°02' E 008°08'0 0.0
2017-Oct-31 17:30N 54°02' E 008°08'0 0.0
2017-Oct-31 17:00N 54°02' E 008°08'0 0.0
2017-Oct-31 16:18N 54°02' E 008°08'0 0.0
2017-Oct-31 16:00N 54°02' E 008°08'0 0.0
2017-Oct-31 15:24N 54°02' E 008°08'0 0.0
2017-Oct-31 15:00N 54°02' E 008°08'0 0.1
2017-Oct-31 14:30N 54°02' E 008°08'0 0.0
2017-Oct-31 14:00N 54°02' E 008°08'0 0.1
2017-Oct-31 13:30N 54°02' E 008°08'0 0.0
2017-Oct-31 13:00N 54°02' E 008°08'0 0.1
2017-Oct-31 12:30N 54°02' E 008°08'0 0.0
2017-Oct-31 12:00N 54°02' E 008°08'0 0.0
2017-Oct-31 11:30N 54°02' E 008°08'0 0.0
2017-Oct-31 11:00N 54°02' E 008°08'0 0.0
2017-Oct-31 10:30N 54°02' E 008°08'0 0.1
2017-Oct-31 10:00N 54°02' E 008°08'0 0.1
2017-Oct-31 09:21N 54°02' E 008°08'0 0.0
2017-Oct-31 09:00N 54°02' E 008°08'0 0.1
2017-Oct-31 08:30N 54°02' E 008°08'0 0.1
2017-Oct-31 08:00N 54°02' E 008°08'0 0.0
2017-Oct-31 07:30N 54°02' E 008°08'0 0.0
2017-Oct-31 07:00N 54°02' E 008°08'0 0.0
2017-Oct-31 06:30N 54°02' E 008°08'0 0.1
2017-Oct-31 05:54N 54°02' E 008°08'0 0.0
2017-Oct-31 05:12N 54°02' E 008°08'0 0.1
2017-Oct-31 05:00N 54°02' E 008°08'0 0.0
2017-Oct-31 04:27N 54°02' E 008°08'0 0.1
2017-Oct-31 04:00N 54°02' E 008°08'0 0.0
2017-Oct-31 03:30N 54°02' E 008°08'0 0.0
2017-Oct-31 03:00N 54°02' E 008°08'0 0.0
2017-Oct-31 02:30N 54°02' E 008°08'0 0.1
2017-Oct-31 01:51N 54°02' E 008°08'0 0.1
2017-Oct-31 01:30N 54°02' E 008°08'0 0.0
2017-Oct-31 00:57N 54°02' E 008°08'0 0.1
2017-Oct-31 00:24N 54°02' E 008°08'0 0.0
2017-Oct-31 00:00N 54°02' E 008°08'0 0.0
2017-Oct-30 19:24N 54°02' E 008°08'0 0.0
2017-Oct-30 11:09N 54°02' E 008°08'0 0.0
2017-Oct-30 08:39N 54°02' E 008°08'0 0.1
2017-Oct-30 08:30N 54°02' E 008°08'0 0.0
2017-Oct-30 07:54N 54°02' E 008°08'0 0.0
2017-Oct-30 07:30N 54°02' E 008°08'0 0.0
2017-Oct-30 06:57N 54°02' E 008°08'0 0.1
2017-Oct-30 06:27N 54°02' E 008°08'0 0.0
2017-Oct-30 05:48N 54°02' E 008°08'0 0.0
2017-Oct-30 05:30N 54°02' E 008°08'0 0.1
2017-Oct-30 05:00N 54°02' E 008°08'0 0.1
2017-Oct-30 04:30N 54°02' E 008°08'0 0.1
2017-Oct-30 04:00N 54°02' E 008°08'0 0.0
2017-Oct-30 03:30N 54°02' E 008°08'0 0.0
2017-Oct-30 03:00N 54°02' E 008°08'0 0.1
2017-Oct-30 02:21N 54°02' E 008°08'0 0.1
2017-Oct-30 02:00N 54°02' E 008°08'0 0.0
2017-Oct-30 01:30N 54°02' E 008°08'0 0.1
2017-Oct-30 01:00N 54°02' E 008°08'  

Dump ship's entire track history